Time;durP1;ratioP1;P1;durP2;ratioP2;P2;SDS_P1;SDS_P2;PMS_P1;PMS_P2;Temp;Humidity;BMP_temperature;BMP_pressure;BME280_temperature;BME280_humidity;BME280_pressure;Samples;Min_cycle;Max_cycle;Signal;HPM_P1;HPM_P2
2022/01/28 00:04:48;;;;;;;6.00;5.50;;;3.30;99.90;;;;;;5074879;28;20571;-73
2022/01/28 00:07:14;;;;;;;6.93;6.30;;;3.20;99.90;;;;;;5064188;28;20209;-73
2022/01/28 00:09:40;;;;;;;5.90;5.40;;;3.20;99.90;;;;;;5073688;28;20184;-73
2022/01/28 00:12:09;;;;;;;7.03;5.53;;;3.20;99.90;;;;;;5070106;28;20209;-74
2022/01/28 00:17:47;;;;;;;5.00;4.60;;;3.20;99.90;;;;;;5066559;28;20211;-73
2022/01/28 00:20:55;;;;;;;6.13;5.53;;;3.10;99.90;;;;;;5070007;28;20269;-73
2022/01/28 00:37:01;;;;;;;5.27;4.77;;;2.90;99.90;;;;;;5063366;28;20726;-73
2022/01/28 00:39:27;;;;;;;4.17;3.87;;;2.90;99.90;;;;;;5063262;28;20528;-73
2022/01/28 00:41:52;;;;;;;7.10;5.43;;;2.90;99.90;;;;;;5066972;28;20237;-73
2022/01/28 00:44:18;;;;;;;4.33;4.00;;;2.90;99.90;;;;;;5070680;28;20191;-74
2022/01/28 00:46:44;;;;;;;6.10;5.47;;;2.90;99.90;;;;;;5066362;28;20210;-73
2022/01/28 00:49:09;;;;;;;6.10;5.17;;;2.90;99.90;;;;;;5067632;28;20178;-73
2022/01/28 00:51:35;;;;;;;6.43;5.87;;;2.90;99.90;;;;;;5064677;28;20711;-73
2022/01/28 00:54:00;;;;;;;6.40;5.20;;;3.00;99.90;;;;;;5073239;28;20705;-73
2022/01/28 00:56:26;;;;;;;5.57;5.10;;;2.90;99.90;;;;;;5066140;28;20214;-73
2022/01/28 00:58:52;;;;;;;5.60;5.10;;;2.90;99.90;;;;;;5065086;28;20192;-73
2022/01/28 01:01:17;;;;;;;5.57;5.03;;;3.00;99.90;;;;;;5063136;28;20674;-73
2022/01/28 01:03:43;;;;;;;5.73;5.23;;;3.00;99.90;;;;;;5071300;28;20183;-73
2022/01/28 01:06:09;;;;;;;3.93;3.57;;;2.90;99.90;;;;;;5066286;28;20234;-73
2022/01/28 01:08:34;;;;;;;5.80;5.10;;;2.80;99.90;;;;;;5067898;28;20394;-73
2022/01/28 01:11:00;;;;;;;5.53;4.73;;;2.80;99.90;;;;;;5071390;28;20183;-73
2022/01/28 01:13:25;;;;;;;4.27;3.97;;;2.80;99.90;;;;;;5067759;28;20605;-73
2022/01/28 01:15:57;;;;;;;5.90;5.40;;;2.80;99.90;;;;;;5067906;28;20180;-74
2022/01/28 01:18:29;;;;;;;4.40;4.00;;;2.80;99.90;;;;;;5049436;28;20192;-74
2022/01/28 01:21:02;;;;;;;4.77;4.37;;;2.90;99.90;;;;;;5069076;28;20187;-74
2022/01/28 01:23:31;;;;;;;6.63;6.03;;;2.80;99.90;;;;;;5067984;28;20197;-73
2022/01/28 01:28:34;;;;;;;6.20;5.60;;;2.80;99.90;;;;;;5068815;28;20642;-74
2022/01/28 01:31:02;;;;;;;6.37;5.83;;;2.90;99.90;;;;;;5075164;28;20174;-74
2022/01/28 01:33:31;;;;;;;5.70;5.07;;;2.80;99.90;;;;;;5070693;28;20186;-73
2022/01/28 01:36:01;;;;;;;3.90;3.60;;;2.80;99.90;;;;;;5069864;28;20663;-73
2022/01/28 01:38:31;;;;;;;4.80;4.40;;;2.80;99.90;;;;;;5070503;28;20218;-74
2022/01/28 01:41:00;;;;;;;5.20;4.70;;;2.90;99.90;;;;;;5076901;28;20649;-73
2022/01/28 01:46:25;;;;;;;4.93;4.30;;;3.00;99.90;;;;;;5074145;28;20211;-74
2022/01/28 01:54:08;;;;;;;4.70;4.30;;;3.00;99.90;;;;;;5076141;28;20189;-73
2022/01/28 01:56:35;;;;;;;4.43;4.03;;;3.10;99.90;;;;;;5072624;28;20211;-73
2022/01/28 01:59:01;;;;;;;4.63;4.23;;;3.10;99.90;;;;;;5076870;28;20179;-73
2022/01/28 02:01:27;;;;;;;3.57;3.37;;;3.10;99.90;;;;;;5074639;28;20696;-74
2022/01/28 02:03:53;;;;;;;5.03;4.17;;;3.10;99.90;;;;;;5080500;28;20194;-74
2022/01/28 02:06:20;;;;;;;4.10;3.80;;;3.00;99.90;;;;;;5075030;28;20219;-73
2022/01/28 02:08:47;;;;;;;4.80;4.50;;;3.00;99.90;;;;;;5072658;28;20187;-73
2022/01/28 02:11:13;;;;;;;4.50;4.10;;;3.00;99.90;;;;;;5077846;28;20187;-73
2022/01/28 02:13:40;;;;;;;4.67;4.27;;;2.90;99.90;;;;;;5075448;28;20665;-73
2022/01/28 02:16:07;;;;;;;4.80;4.40;;;2.90;99.90;;;;;;5075112;28;20232;-73
2022/01/28 02:18:33;;;;;;;4.60;4.20;;;2.90;99.90;;;;;;5071395;28;20215;-73
2022/01/28 02:21:06;;;;;;;5.00;4.50;;;2.90;99.90;;;;;;5075102;28;20255;-73
2022/01/28 02:23:32;;;;;;;4.63;4.23;;;3.00;99.90;;;;;;5069949;28;20180;-73
2022/01/28 02:25:59;;;;;;;8.80;5.00;;;3.00;99.90;;;;;;5074071;28;20246;-74
2022/01/28 02:28:27;;;;;;;4.57;4.20;;;3.00;99.90;;;;;;5066874;28;20193;-74
2022/01/28 02:30:52;;;;;;;6.87;5.37;;;3.00;99.90;;;;;;5076299;28;20187;-74
2022/01/28 02:33:21;;;;;;;5.07;4.67;;;2.80;99.90;;;;;;5075019;28;20245;-73
2022/01/28 02:35:48;;;;;;;7.87;5.03;;;2.80;99.90;;;;;;5068722;28;20236;-74
2022/01/28 02:38:15;;;;;;;5.67;5.17;;;2.70;99.90;;;;;;5071149;28;20190;-74
2022/01/28 02:40:47;;;;;;;5.73;5.13;;;2.70;99.90;;;;;;5074292;28;20685;-74
2022/01/28 02:45:49;;;;;;;4.40;4.00;;;2.60;99.90;;;;;;5075905;28;20256;-73
2022/01/28 02:48:19;;;;;;;5.53;5.03;;;2.70;99.90;;;;;;5068889;28;20186;-74
2022/01/28 02:51:02;;;;;;;6.10;5.50;;;2.70;99.90;;;;;;5073550;28;20179;-75
2022/01/28 02:53:38;;;;;;;6.13;5.53;;;2.70;99.90;;;;;;5068083;28;20236;-74
2022/01/28 02:56:13;;;;;;;3.63;3.33;;;2.70;99.90;;;;;;5077372;28;20219;-74
2022/01/28 02:58:39;;;;;;;5.93;5.17;;;2.70;99.90;;;;;;5076646;28;20231;-73
2022/01/28 03:01:05;;;;;;;7.37;5.03;;;2.80;99.90;;;;;;5078051;28;20182;-73
2022/01/28 03:03:31;;;;;;;6.47;5.83;;;2.90;99.90;;;;;;5073712;28;20234;-74
2022/01/28 03:05:56;;;;;;;6.67;4.53;;;3.00;99.90;;;;;;5070196;28;20624;-74
2022/01/28 03:08:26;;;;;;;6.20;5.37;;;3.10;99.90;;;;;;5076918;28;20266;-74
2022/01/28 03:16:21;;;;;;;7.10;5.87;;;3.10;99.90;;;;;;5075937;28;20213;-74
2022/01/28 03:23:51;;;;;;;4.63;3.77;;;3.10;99.90;;;;;;5071121;28;20657;-74
2022/01/28 03:26:17;;;;;;;5.77;4.83;;;3.10;99.90;;;;;;5069416;28;20237;-74
2022/01/28 03:28:43;;;;;;;6.20;5.60;;;3.20;99.90;;;;;;5073124;28;20717;-74
2022/01/28 03:31:09;;;;;;;4.67;4.27;;;3.20;99.90;;;;;;5068410;28;20198;-73
2022/01/28 03:33:34;;;;;;;6.63;6.03;;;3.20;99.90;;;;;;5066619;28;20204;-74
2022/01/28 03:36:03;;;;;;;5.43;4.90;;;3.20;99.90;;;;;;5066483;28;20206;-74
2022/01/28 03:38:29;;;;;;;6.30;5.80;;;3.20;99.90;;;;;;5064005;28;20198;-73
2022/01/28 03:40:56;;;;;;;8.70;5.43;;;3.20;99.90;;;;;;5061065;28;20184;-73
2022/01/28 03:43:22;;;;;;;7.67;5.70;;;3.20;99.90;;;;;;5056215;28;20574;-73
2022/01/28 03:45:48;;;;;;;6.83;4.57;;;3.20;99.90;;;;;;5074262;28;20214;-73
2022/01/28 03:48:14;;;;;;;6.33;5.50;;;3.10;99.90;;;;;;5066366;28;20298;-74
2022/01/28 03:50:39;;;;;;;5.93;5.33;;;3.20;99.90;;;;;;5068790;28;20183;-74
2022/01/28 03:53:07;;;;;;;8.03;4.27;;;3.10;99.90;;;;;;5070519;28;20183;-73
2022/01/28 03:55:32;;;;;;;6.40;5.13;;;3.20;99.90;;;;;;5065538;28;20196;-73
2022/01/28 03:57:58;;;;;;;5.97;5.37;;;3.20;99.90;;;;;;5063845;28;20218;-74
2022/01/28 04:00:27;;;;;;;7.07;5.43;;;3.20;99.90;;;;;;5054949;28;20195;-74
2022/01/28 04:13:45;;;;;;;5.43;4.93;;;3.20;99.90;;;;;;5060269;28;20645;-74
2022/01/28 04:17:18;;;;;;;4.13;3.73;;;3.10;99.90;;;;;;5065731;28;20223;-74
2022/01/28 04:18:57;;;;;;;7.23;4.80;;;3.10;99.90;;;;;;5068540;28;20277;-74
2022/01/28 04:21:23;;;;;;;4.30;3.77;;;3.00;99.90;;;;;;5052766;28;20199;-74
2022/01/28 04:23:48;;;;;;;6.03;4.63;;;3.10;99.90;;;;;;5059929;28;20321;-73
2022/01/28 04:26:14;;;;;;;4.90;4.37;;;3.00;99.90;;;;;;5046268;28;20306;-74
2022/01/28 04:28:40;;;;;;;8.43;4.77;;;3.00;99.90;;;;;;5069672;28;20179;-74
2022/01/28 04:31:06;;;;;;;6.47;4.30;;;3.00;99.90;;;;;;5069920;28;20187;-74
2022/01/28 04:33:32;;;;;;;3.23;2.93;;;3.00;99.90;;;;;;5063228;28;20661;-74
2022/01/28 04:35:57;;;;;;;5.23;3.70;;;3.00;99.90;;;;;;5067187;28;20221;-74
2022/01/28 04:38:34;;;;;;;4.27;3.83;;;3.10;99.90;;;;;;5070330;28;20561;-74
2022/01/28 04:43:53;;;;;;;4.77;4.37;;;2.90;99.90;;;;;;5063012;28;20211;-74
2022/01/28 04:59:35;;;;;;;5.53;3.80;;;2.80;99.90;;;;;;5065408;28;20183;-74
2022/01/28 05:10:24;;;;;;;5.33;4.83;;;3.00;99.90;;;;;;5067425;28;20190;-74
2022/01/28 05:13:13;;;;;;;4.83;4.30;;;2.90;99.90;;;;;;5059635;28;20670;-74
2022/01/28 05:28:49;;;;;;;3.10;2.90;;;3.10;99.90;;;;;;5066599;28;20194;-74
2022/01/28 05:31:18;;;;;;;5.07;4.57;;;3.10;99.90;;;;;;5066064;28;20576;-74
2022/01/28 05:33:45;;;;;;;4.10;3.80;;;3.10;99.90;;;;;;5064050;28;20191;-74
2022/01/28 05:36:10;;;;;;;5.77;3.93;;;3.10;99.90;;;;;;5064959;28;20206;-75
2022/01/28 05:38:36;;;;;;;3.17;2.93;;;3.10;99.90;;;;;;5059656;28;20543;-74
2022/01/28 05:41:02;;;;;;;3.70;3.40;;;3.10;99.90;;;;;;5068064;28;20229;-73
2022/01/28 05:43:27;;;;;;;5.97;4.53;;;3.10;99.90;;;;;;5062244;28;20194;-74
2022/01/28 05:45:54;;;;;;;7.23;4.60;;;3.20;99.90;;;;;;5062872;28;20238;-74
2022/01/28 05:48:21;;;;;;;4.47;3.83;;;3.10;99.90;;;;;;5069713;28;20176;-74
2022/01/28 05:50:47;;;;;;;3.60;3.33;;;3.10;99.90;;;;;;5066915;28;20244;-74
2022/01/28 05:53:13;;;;;;;3.97;3.67;;;3.20;99.90;;;;;;5059535;28;20175;-74
2022/01/28 05:55:39;;;;;;;4.77;3.77;;;3.20;99.90;;;;;;5062271;28;20237;-74
2022/01/28 05:58:05;;;;;;;3.90;3.50;;;3.20;99.90;;;;;;5065930;28;20199;-74
2022/01/28 06:00:30;;;;;;;5.80;5.20;;;3.10;99.90;;;;;;5062512;28;20177;-73
2022/01/28 06:02:56;;;;;;;5.13;3.67;;;3.10;99.90;;;;;;5058469;28;20195;-74
2022/01/28 06:05:22;;;;;;;3.70;3.40;;;3.10;99.90;;;;;;5059311;28;20200;-74
2022/01/28 06:07:47;;;;;;;5.13;3.93;;;3.10;99.90;;;;;;5063211;28;20633;-74
2022/01/28 06:10:15;;;;;;;6.80;5.33;;;3.00;99.90;;;;;;5059115;28;20549;-74
2022/01/28 06:12:47;;;;;;;4.57;3.70;;;3.00;99.90;;;;;;5063011;28;20198;-74
2022/01/28 06:15:13;;;;;;;4.97;4.07;;;2.90;99.90;;;;;;5064696;28;20176;-74
2022/01/28 06:17:39;;;;;;;3.70;3.40;;;2.90;99.90;;;;;;5062292;28;20211;-74
2022/01/28 06:20:07;;;;;;;6.47;4.73;;;2.80;99.90;;;;;;5064068;28;20184;-74
2022/01/28 06:22:38;;;;;;;4.63;4.10;;;2.90;99.90;;;;;;5042345;28;20180;-75
2022/01/28 06:25:04;;;;;;;4.10;3.70;;;2.80;99.90;;;;;;5059978;28;20200;-74
2022/01/28 06:27:30;;;;;;;6.30;4.93;;;2.80;99.90;;;;;;5064565;28;20214;-74
2022/01/28 06:29:56;;;;;;;3.90;3.50;;;2.70;99.90;;;;;;5067293;28;20175;-74
2022/01/28 06:32:21;;;;;;;4.77;4.33;;;2.70;99.90;;;;;;5065511;28;20180;-74
2022/01/28 06:34:47;;;;;;;6.87;4.77;;;2.70;99.90;;;;;;5061999;28;20183;-73
2022/01/28 06:37:12;;;;;;;4.67;4.27;;;2.70;99.90;;;;;;5060731;28;20203;-73
2022/01/28 06:39:38;;;;;;;4.70;4.20;;;2.80;99.90;;;;;;5065284;28;20229;-73
2022/01/28 06:42:04;;;;;;;4.57;4.07;;;2.80;99.90;;;;;;5061974;28;20175;-73
2022/01/28 06:44:31;;;;;;;6.10;4.60;;;2.70;99.90;;;;;;5065985;28;20184;-73
2022/01/28 06:46:57;;;;;;;8.03;5.50;;;2.70;99.90;;;;;;5071203;28;20263;-72
2022/01/28 06:49:23;;;;;;;5.07;4.57;;;2.60;99.90;;;;;;5064840;28;20681;-73
2022/01/28 06:51:48;;;;;;;3.77;3.47;;;2.50;99.90;;;;;;5058687;28;20264;-73
2022/01/28 06:54:14;;;;;;;5.43;4.90;;;2.60;99.90;;;;;;5068619;28;20180;-73
2022/01/28 06:56:40;;;;;;;5.33;4.43;;;2.60;99.90;;;;;;5066824;28;20245;-74
2022/01/28 06:59:05;;;;;;;4.27;3.97;;;2.60;99.90;;;;;;5061697;28;20547;-74
2022/01/28 07:01:31;;;;;;;5.43;4.10;;;2.60;99.90;;;;;;5061664;28;20172;-73
2022/01/28 07:03:57;;;;;;;7.10;4.50;;;2.70;99.90;;;;;;5068161;28;20182;-73
2022/01/28 07:06:23;;;;;;;5.27;4.73;;;2.70;99.90;;;;;;5063676;28;20633;-73
2022/01/28 07:08:50;;;;;;;6.63;3.67;;;2.60;99.90;;;;;;5066786;28;20186;-74
2022/01/28 07:11:17;;;;;;;5.87;4.60;;;2.60;99.90;;;;;;5070132;28;20214;-74
2022/01/28 07:13:43;;;;;;;3.90;3.17;;;2.70;99.90;;;;;;5070425;28;20179;-74
2022/01/28 07:16:08;;;;;;;6.33;4.30;;;2.70;99.90;;;;;;5064949;28;20286;-73
2022/01/28 07:18:34;;;;;;;4.17;3.87;;;2.80;99.90;;;;;;5068420;28;20210;-75
2022/01/28 07:21:00;;;;;;;4.10;3.70;;;2.80;99.90;;;;;;5059804;28;20582;-75
2022/01/28 07:23:25;;;;;;;6.47;4.00;;;2.80;99.90;;;;;;5063582;28;20184;-75
2022/01/28 07:25:51;;;;;;;4.33;3.33;;;2.80;99.90;;;;;;5065628;28;20208;-76
2022/01/28 07:28:17;;;;;;;10.47;4.17;;;2.90;99.90;;;;;;5067269;28;20231;-74
2022/01/28 07:30:42;;;;;;;4.00;2.80;;;2.90;99.90;;;;;;5069865;28;20174;-74
2022/01/28 07:33:10;;;;;;;5.53;3.23;;;2.90;99.90;;;;;;5064567;28;20313;-75
2022/01/28 07:35:36;;;;;;;3.73;3.13;;;2.90;99.90;;;;;;5062621;28;20654;-74
2022/01/28 07:38:02;;;;;;;4.10;3.70;;;3.00;99.90;;;;;;5062416;28;20203;-75
2022/01/28 07:40:29;;;;;;;2.83;2.60;;;3.00;99.90;;;;;;5066872;28;20190;-74
2022/01/28 07:42:54;;;;;;;3.70;3.40;;;3.00;99.90;;;;;;5061265;28;20187;-73
2022/01/28 07:45:20;;;;;;;6.53;3.93;;;3.00;99.90;;;;;;5066537;28;20735;-75
2022/01/28 07:47:46;;;;;;;3.60;3.30;;;3.10;99.90;;;;;;5064075;28;20223;-74
2022/01/28 07:50:13;;;;;;;4.03;3.53;;;3.10;99.90;;;;;;5059789;28;20424;-74
2022/01/28 07:52:39;;;;;;;6.43;3.97;;;3.10;99.90;;;;;;5059500;28;20253;-74
2022/01/28 07:55:06;;;;;;;5.20;3.90;;;3.10;99.90;;;;;;5059961;28;20221;-73
2022/01/28 07:57:34;;;;;;;5.80;3.87;;;3.20;99.90;;;;;;5061110;28;20281;-73
2022/01/28 08:00:00;;;;;;;5.30;4.80;;;3.20;99.90;;;;;;5068198;28;20314;-71
2022/01/28 08:02:27;;;;;;;4.13;3.70;;;3.30;99.90;;;;;;5067872;28;20241;-68
2022/01/28 08:04:53;;;;;;;3.73;3.00;;;3.30;99.90;;;;;;5065559;28;20548;-68
2022/01/28 08:07:19;;;;;;;7.23;3.93;;;3.40;99.90;;;;;;5060391;28;20196;-71
2022/01/28 08:09:44;;;;;;;7.00;4.93;;;3.40;99.90;;;;;;5065055;28;20175;-71
2022/01/28 08:12:10;;;;;;;6.20;4.40;;;3.40;99.90;;;;;;5063720;28;20650;-71
2022/01/28 08:14:35;;;;;;;5.03;3.80;;;3.50;99.90;;;;;;5065409;28;20179;-71
2022/01/28 08:17:01;;;;;;;10.43;4.47;;;3.50;99.90;;;;;;5064555;28;20203;-71
2022/01/28 08:19:27;;;;;;;4.03;3.73;;;3.60;99.90;;;;;;5065219;28;20179;-71
2022/01/28 08:21:52;;;;;;;4.07;3.03;;;3.60;99.90;;;;;;5069633;28;20225;-71
2022/01/28 08:24:18;;;;;;;5.00;3.53;;;3.60;99.90;;;;;;5061581;28;20198;-72
2022/01/28 08:26:43;;;;;;;5.70;4.43;;;3.60;99.90;;;;;;5063184;28;20222;-71
2022/01/28 08:29:09;;;;;;;7.07;3.80;;;3.60;99.90;;;;;;5061360;28;20647;-70
2022/01/28 08:31:37;;;;;;;5.23;3.70;;;3.60;99.90;;;;;;5065306;28;20190;-72
2022/01/28 08:34:03;;;;;;;4.50;3.60;;;3.60;99.90;;;;;;5069790;28;20179;-69
2022/01/28 08:36:29;;;;;;;3.70;3.27;;;3.80;99.90;;;;;;5064796;28;20244;-68
2022/01/28 08:38:56;;;;;;;3.83;3.40;;;3.90;99.90;;;;;;5065019;28;20665;-68
2022/01/28 08:41:22;;;;;;;2.83;2.63;;;4.00;99.90;;;;;;5067287;28;20182;-68
2022/01/28 08:43:48;;;;;;;4.47;3.00;;;4.00;99.90;;;;;;5068409;28;20187;-69
2022/01/28 08:46:14;;;;;;;3.00;2.73;;;3.90;99.90;;;;;;5061537;28;20202;-69
2022/01/28 08:48:40;;;;;;;4.77;2.37;;;4.00;99.90;;;;;;5064861;28;20232;-68
2022/01/28 08:51:06;;;;;;;3.60;3.30;;;3.90;99.90;;;;;;5058530;28;20276;-72
2022/01/28 08:53:31;;;;;;;2.60;2.37;;;3.80;99.90;;;;;;5054822;28;20217;-69
2022/01/28 08:55:58;;;;;;;3.93;2.87;;;3.80;99.90;;;;;;5069728;28;20183;-69
2022/01/28 08:58:23;;;;;;;3.57;2.50;;;3.80;99.90;;;;;;5069241;28;20187;-69
2022/01/28 09:00:50;;;;;;;2.30;2.07;;;3.80;99.90;;;;;;5060281;28;20212;-71
2022/01/28 09:03:17;;;;;;;2.73;2.13;;;3.80;99.90;;;;;;5062925;28;20210;-73
2022/01/28 09:05:44;;;;;;;2.80;1.93;;;3.90;99.90;;;;;;5061231;28;20205;-72
2022/01/28 09:08:10;;;;;;;3.67;2.30;;;3.90;99.90;;;;;;5062663;28;20312;-73
2022/01/28 09:10:41;;;;;;;2.90;2.37;;;3.80;99.90;;;;;;5061891;28;20180;-73
2022/01/28 09:15:42;;;;;;;2.40;2.23;;;3.90;99.90;;;;;;5065636;28;20263;-72
2022/01/28 09:18:12;;;;;;;5.40;2.30;;;4.00;99.90;;;;;;5064903;28;20190;-72
2022/01/28 09:20:38;;;;;;;2.53;2.30;;;3.90;99.90;;;;;;5063847;28;20180;-71
2022/01/28 09:23:04;;;;;;;2.33;2.10;;;3.90;99.90;;;;;;5062799;28;20575;-71
2022/01/28 09:25:31;;;;;;;2.33;2.10;;;3.90;99.90;;;;;;5062246;28;20203;-70
2022/01/28 09:27:57;;;;;;;3.40;2.50;;;3.90;99.90;;;;;;5047074;28;20240;-70
2022/01/28 09:30:23;;;;;;;8.40;3.73;;;4.10;99.90;;;;;;5058617;28;20183;-69
2022/01/28 09:32:49;;;;;;;2.53;2.33;;;4.10;99.90;;;;;;5063148;28;20183;-70
2022/01/28 09:35:15;;;;;;;3.87;2.27;;;4.20;99.90;;;;;;5064995;28;20191;-70
2022/01/28 09:37:42;;;;;;;3.97;2.07;;;4.20;99.90;;;;;;5064398;28;20195;-69
2022/01/28 09:40:08;;;;;;;3.43;2.53;;;4.20;99.90;;;;;;5062318;28;20176;-70
2022/01/28 09:42:37;;;;;;;2.10;1.97;;;4.30;99.90;;;;;;5065874;28;20184;-69
2022/01/28 09:45:04;;;;;;;3.13;2.10;;;4.30;99.90;;;;;;5064276;28;20680;-72
2022/01/28 09:47:31;;;;;;;2.70;1.80;;;4.40;99.90;;;;;;5057036;28;20275;-73
2022/01/28 09:49:58;;;;;;;5.27;2.43;;;4.30;99.90;;;;;;5058775;28;20641;-71
2022/01/28 09:52:23;;;;;;;3.73;2.40;;;4.30;99.90;;;;;;5058081;28;20229;-69
2022/01/28 09:54:49;;;;;;;2.57;2.03;;;4.30;99.90;;;;;;5064741;28;20187;-70
2022/01/28 09:57:19;;;;;;;3.57;2.00;;;4.30;99.90;;;;;;5061859;28;20203;-70
2022/01/28 09:59:45;;;;;;;4.43;1.53;;;4.30;99.90;;;;;;5059119;28;20176;-70
2022/01/28 10:02:10;;;;;;;1.87;1.77;;;4.40;99.90;;;;;;5067179;28;20207;-70
2022/01/28 10:04:36;;;;;;;1.87;1.70;;;4.40;99.90;;;;;;5068579;28;20669;-69
2022/01/28 10:07:16;;;;;;;3.80;2.30;;;4.40;99.90;;;;;;5061606;28;20612;-71
2022/01/28 10:09:55;;;;;;;4.03;2.03;;;4.40;99.90;;;;;;5053266;28;20705;-70
2022/01/28 10:12:30;;;;;;;2.37;2.20;;;4.40;99.90;;;;;;5063120;28;20198;-69
2022/01/28 10:15:16;;;;;;;3.10;2.00;;;4.40;99.90;;;;;;5065468;28;20545;-70
2022/01/28 10:17:58;;;;;;;1.70;1.60;;;4.30;99.90;;;;;;5065572;28;20223;-70
2022/01/28 10:20:25;;;;;;;2.07;1.50;;;4.10;99.90;;;;;;5064856;28;20729;-70
2022/01/28 10:22:52;;;;;;;4.67;2.03;;;4.00;99.90;;;;;;5067875;28;20176;-70
2022/01/28 10:25:31;;;;;;;3.60;2.13;;;4.00;99.90;;;;;;5072738;28;20221;-73
2022/01/28 10:27:58;;;;;;;5.93;2.10;;;4.10;99.90;;;;;;5068791;28;20557;-70
2022/01/28 10:30:23;;;;;;;1.83;1.73;;;4.20;99.90;;;;;;5071481;28;20179;-69
2022/01/28 10:33:09;;;;;;;3.47;2.37;;;4.30;99.90;;;;;;5066400;28;20544;-71
2022/01/28 10:35:35;;;;;;;4.37;1.87;;;4.40;99.90;;;;;;5070047;28;20191;-71
2022/01/28 10:38:02;;;;;;;3.27;2.00;;;4.40;99.90;;;;;;5069845;28;20209;-69
2022/01/28 10:40:28;;;;;;;3.10;2.37;;;4.50;99.90;;;;;;5069223;28;20191;-72
2022/01/28 10:42:53;;;;;;;5.80;1.27;;;4.70;99.90;;;;;;5070714;28;20193;-69
2022/01/28 10:45:28;;;;;;;1.73;1.52;;;4.80;99.90;;;;;;5059351;28;20577;-74
2022/01/28 10:47:58;;;;;;;2.88;1.20;;;4.90;99.90;;;;;;5066151;28;20209;-73
2022/01/28 10:50:31;;;;;;;3.33;1.90;;;4.90;99.90;;;;;;5073055;28;20223;-75
2022/01/28 10:53:04;;;;;;;2.65;1.50;;;5.00;99.90;;;;;;5065449;28;20320;-72
2022/01/28 10:55:33;;;;;;;4.03;1.40;;;5.10;99.90;;;;;;5069560;28;20672;-72
2022/01/28 10:58:02;;;;;;;1.58;1.48;;;5.10;99.90;;;;;;5071222;28;20214;-73
2022/01/28 11:00:31;;;;;;;2.08;1.52;;;5.00;99.90;;;;;;5069607;28;20185;-73
2022/01/28 11:02:59;;;;;;;4.93;1.80;;;4.90;99.90;;;;;;5076516;28;20566;-72
2022/01/28 11:05:28;;;;;;;7.47;2.20;;;4.90;99.90;;;;;;5072564;28;20199;-72
2022/01/28 11:07:54;;;;;;;3.17;2.13;;;4.90;99.90;;;;;;5065552;28;20203;-72
2022/01/28 11:10:20;;;;;;;1.80;1.70;;;4.80;99.90;;;;;;5045162;28;20186;-73
2022/01/28 11:12:46;;;;;;;5.20;2.17;;;4.80;99.90;;;;;;5063701;28;20179;-73
2022/01/28 11:15:12;;;;;;;2.70;1.80;;;4.70;99.90;;;;;;5070736;28;20202;-70
2022/01/28 11:17:38;;;;;;;4.28;1.90;;;4.80;99.90;;;;;;5070754;28;20286;-71
2022/01/28 11:20:06;;;;;;;6.67;2.40;;;4.80;99.90;;;;;;5066931;28;20183;-71
2022/01/28 11:22:39;;;;;;;6.90;2.60;;;4.80;99.90;;;;;;5066745;28;20685;-71
2022/01/28 11:25:25;;;;;;;8.60;2.00;;;4.80;99.90;;;;;;5069641;28;20253;-71
2022/01/28 11:27:51;;;;;;;5.83;2.43;;;4.90;99.90;;;;;;5070274;28;20206;-71
2022/01/28 11:30:27;;;;;;;5.60;1.83;;;4.90;99.90;;;;;;5064311;28;20577;-73
2022/01/28 11:33:06;;;;;;;2.93;1.40;;;5.00;99.90;;;;;;5072043;28;20182;-73
2022/01/28 11:35:52;;;;;;;4.60;1.92;;;5.00;99.90;;;;;;5067717;28;20206;-73
2022/01/28 11:38:29;;;;;;;7.72;1.70;;;5.10;99.90;;;;;;5066872;28;20192;-73
2022/01/28 11:41:11;;;;;;;6.35;3.03;;;5.40;99.90;;;;;;5052530;28;20182;-71
2022/01/28 11:43:45;;;;;;;2.63;1.63;;;5.40;99.90;;;;;;5067695;28;20184;-70
2022/01/28 11:46:20;;;;;;;7.55;2.20;;;5.30;99.90;;;;;;5061786;28;20692;-69
2022/01/28 11:48:51;;;;;;;3.77;2.27;;;5.10;99.90;;;;;;5067253;28;20939;-73
2022/01/28 11:51:24;;;;;;;7.28;3.28;;;5.10;99.90;;;;;;5066460;28;20207;-73
2022/01/28 11:53:54;;;;;;;5.10;2.00;;;5.30;99.90;;;;;;5061588;28;20206;-73
2022/01/28 11:56:21;;;;;;;5.22;2.22;;;5.50;99.90;;;;;;5069973;28;20671;-72
2022/01/28 11:59:01;;;;;;;7.28;2.40;;;5.60;99.90;;;;;;5063255;28;20188;-73
2022/01/28 12:01:39;;;;;;;2.88;2.17;;;5.80;99.90;;;;;;5064972;28;20183;-72
2022/01/28 12:04:27;;;;;;;6.40;2.20;;;5.70;99.90;;;;;;5072617;28;20205;-72
2022/01/28 12:07:01;;;;;;;2.70;1.75;;;5.70;99.90;;;;;;5068510;28;20294;-72
2022/01/28 12:09:29;;;;;;;2.38;1.85;;;5.50;99.90;;;;;;5063517;28;20178;-69
2022/01/28 12:11:55;;;;;;;3.00;2.10;;;5.30;99.90;;;;;;5068374;28;20185;-72
2022/01/28 12:14:53;;;;;;;2.40;1.70;;;5.30;99.90;;;;;;5045963;28;20180;-74
2022/01/28 12:17:31;;;;;;;3.75;1.80;;;5.30;99.90;;;;;;5069709;28;20200;-69
2022/01/28 12:20:12;;;;;;;4.40;2.30;;;5.30;99.90;;;;;;5068183;28;20263;-70
2022/01/28 12:22:59;;;;;;;4.28;2.15;;;5.20;99.90;;;;;;5060132;28;20187;-70
2022/01/28 12:25:37;;;;;;;3.47;1.67;;;5.10;99.90;;;;;;5054309;28;20212;-69
2022/01/28 12:28:32;;;;;;;1.80;1.50;;;5.00;99.90;;;;;;5066365;28;20221;-70
2022/01/28 12:31:13;;;;;;;2.72;1.30;;;5.00;99.90;;;;;;5051712;28;20233;-70
2022/01/28 12:33:50;;;;;;;6.65;2.47;;;5.00;99.90;;;;;;5065647;28;20545;-70
2022/01/28 12:36:29;;;;;;;2.83;1.77;;;5.00;99.90;;;;;;5067392;28;20830;-72
2022/01/28 12:41:48;;;;;;;10.80;2.10;;;4.90;99.90;;;;;;5066217;28;20205;-70
2022/01/28 12:44:15;;;;;;;2.67;1.90;;;4.90;99.90;;;;;;5051990;28;20206;-70
2022/01/28 12:47:05;;;;;;;3.05;1.50;;;4.80;99.90;;;;;;5066439;28;20621;-73
2022/01/28 12:49:33;;;;;;;4.97;1.55;;;4.90;99.90;;;;;;5056655;28;20175;-69
2022/01/28 12:52:05;;;;;;;6.03;2.75;;;4.90;99.90;;;;;;5065782;28;20186;-70
2022/01/28 12:54:51;;;;;;;3.92;2.00;;;4.80;99.90;;;;;;5069901;28;20557;-70
2022/01/28 12:57:19;;;;;;;3.22;2.17;;;4.80;99.90;;;;;;5062171;28;20223;-71
2022/01/28 12:59:48;;;;;;;4.28;1.98;;;4.70;99.90;;;;;;5061397;28;20186;-71
2022/01/28 13:02:15;;;;;;;5.40;2.22;;;4.70;99.90;;;;;;5065789;28;20195;-71
2022/01/28 13:05:32;;;;;;;1.77;1.60;;;4.80;99.90;;;;;;5068046;28;20229;-71
2022/01/28 13:10:26;;;;;;;4.20;1.60;;;4.90;99.90;;;;;;5061335;28;20194;-71
2022/01/28 13:13:00;;;;;;;3.60;2.13;;;5.00;99.90;;;;;;5060621;28;20182;-70
2022/01/28 13:15:26;;;;;;;2.70;1.77;;;5.10;99.90;;;;;;5063919;28;20186;-72
2022/01/28 13:17:55;;;;;;;4.85;2.13;;;5.10;99.90;;;;;;5061321;28;20200;-70
2022/01/28 13:20:22;;;;;;;2.67;1.70;;;5.10;99.90;;;;;;5066875;28;20524;-70
2022/01/28 13:22:50;;;;;;;6.15;1.83;;;5.40;99.90;;;;;;5061846;28;20629;-70
2022/01/28 13:25:18;;;;;;;3.70;1.80;;;5.50;99.90;;;;;;5055466;28;20216;-72
2022/01/28 13:27:46;;;;;;;7.35;2.47;;;5.50;99.90;;;;;;5063290;28;20269;-73
2022/01/28 13:30:14;;;;;;;2.38;2.13;;;5.80;99.90;;;;;;5065486;28;20185;-73
2022/01/28 13:32:45;;;;;;;4.30;2.05;;;5.80;99.90;;;;;;5063930;28;20178;-72
2022/01/28 13:35:20;;;;;;;6.65;1.85;;;5.80;99.90;;;;;;5056721;28;20672;-72
2022/01/28 13:37:46;;;;;;;4.75;1.75;;;5.90;99.90;;;;;;5059848;28;20201;-73
2022/01/28 13:40:35;;;;;;;6.70;2.10;;;6.10;99.90;;;;;;5066703;28;20186;-72
2022/01/28 13:43:10;;;;;;;2.58;1.67;;;6.20;99.90;;;;;;5062843;28;20187;-73
2022/01/28 13:45:53;;;;;;;2.70;2.35;;;6.40;99.90;;;;;;5068423;28;20206;-72
2022/01/28 13:48:37;;;;;;;7.35;2.58;;;6.10;99.90;;;;;;5064731;28;20725;-70
2022/01/28 13:51:12;;;;;;;1.77;1.60;;;6.10;99.90;;;;;;5066202;28;20168;-72
2022/01/28 13:56:43;;;;;;;5.28;2.33;;;6.30;99.90;;;;;;5067703;28;20571;-72
2022/01/28 13:59:13;;;;;;;4.13;2.33;;;6.40;99.90;;;;;;5064138;28;20184;-71
2022/01/28 14:01:44;;;;;;;2.72;1.33;;;6.60;99.90;;;;;;5071808;28;20179;-71
2022/01/28 14:04:22;;;;;;;2.38;1.70;;;7.20;99.90;;;;;;5071371;28;20232;-71
2022/01/28 14:06:48;;;;;;;2.15;1.92;;;8.00;99.90;;;;;;5073778;28;20279;-72
2022/01/28 14:09:22;;;;;;;2.10;1.73;;;8.30;99.90;;;;;;5072377;28;20610;-72
2022/01/28 14:11:53;;;;;;;5.43;2.58;;;8.10;99.90;;;;;;5073181;28;20592;-72
2022/01/28 14:14:45;;;;;;;4.10;2.00;;;7.70;99.90;;;;;;5071557;28;20206;-72
2022/01/28 14:17:11;;;;;;;5.80;2.40;;;7.40;99.90;;;;;;5071252;28;20566;-71
2022/01/28 14:19:39;;;;;;;6.13;2.08;;;7.20;99.90;;;;;;5069362;28;20258;-71
2022/01/28 14:22:08;;;;;;;4.78;2.05;;;7.30;99.90;;;;;;5069170;28;20179;-72
2022/01/28 14:24:36;;;;;;;4.95;2.72;;;7.20;99.90;;;;;;5067888;28;20226;-73
2022/01/28 14:32:17;;;;;;;5.40;2.55;;;6.40;99.90;;;;;;5068452;28;20274;-74
2022/01/28 14:34:44;;;;;;;8.43;2.25;;;6.20;99.90;;;;;;5073810;28;20175;-73
2022/01/28 14:37:10;;;;;;;3.38;1.65;;;6.00;99.90;;;;;;5067261;28;20195;-73
2022/01/28 14:39:38;;;;;;;1.42;1.33;;;5.90;99.90;;;;;;5064353;28;20180;-74
2022/01/28 14:42:05;;;;;;;3.83;1.52;;;5.80;99.90;;;;;;5053347;28;20207;-73
2022/01/28 14:44:43;;;;;;;3.03;1.92;;;5.70;99.90;;;;;;5069050;28;20222;-73
2022/01/28 14:47:10;;;;;;;7.50;3.28;;;5.60;99.90;;;;;;5063170;28;21368;-73
2022/01/28 14:49:36;;;;;;;4.05;2.15;;;5.60;99.90;;;;;;5058139;28;20268;-73
2022/01/28 14:52:07;;;;;;;6.10;2.55;;;5.50;99.90;;;;;;5063169;28;20258;-74
2022/01/28 14:54:33;;;;;;;3.03;1.95;;;5.50;99.90;;;;;;5061035;28;20179;-73
2022/01/28 14:57:01;;;;;;;4.40;2.17;;;5.40;99.90;;;;;;5065173;28;20209;-74